createdAt,value
2023-06-30T00:00:14.272Z,19.39
2023-06-30T00:02:43.181Z,19.38
2023-06-30T00:05:11.437Z,19.43
2023-06-30T00:07:38.656Z,19.49
2023-06-30T00:10:07.483Z,19.50
2023-06-30T00:12:34.814Z,19.44
2023-06-30T00:15:03.635Z,19.36
2023-06-30T00:17:30.317Z,19.33
2023-06-30T00:20:00.773Z,19.33
2023-06-30T00:22:27.952Z,19.34
2023-06-30T00:24:56.614Z,19.39
2023-06-30T00:27:24.917Z,19.44
2023-06-30T00:29:52.207Z,19.46
2023-06-30T00:32:19.328Z,19.49
2023-06-30T00:34:46.068Z,19.41
2023-06-30T00:37:12.907Z,19.24
2023-06-30T00:39:39.857Z,19.21
2023-06-30T00:42:07.063Z,19.22
2023-06-30T00:44:33.698Z,19.29
2023-06-30T00:47:02.044Z,19.34
2023-06-30T00:49:33.558Z,19.27
2023-06-30T00:52:01.078Z,19.19
2023-06-30T00:54:28.296Z,19.19
2023-06-30T00:56:55.248Z,19.25
2023-06-30T00:59:23.335Z,19.33
2023-06-30T01:02:17.873Z,19.24
2023-06-30T01:06:01.985Z,19.16
2023-06-30T01:08:40.648Z,19.09
2023-06-30T01:11:09.496Z,19.08
2023-06-30T01:13:36.693Z,19.08
2023-06-30T01:16:05.596Z,18.99
2023-06-30T01:18:35.455Z,18.99
2023-06-30T01:21:06.027Z,19.13
2023-06-30T01:23:55.641Z,19.07
2023-06-30T01:26:24.611Z,19.21
2023-06-30T01:28:52.324Z,19.25
2023-06-30T01:31:20.836Z,19.26
2023-06-30T01:33:47.854Z,19.29
2023-06-30T01:36:14.929Z,19.30
2023-06-30T01:38:41.669Z,19.31
2023-06-30T01:41:09.913Z,19.28
2023-06-30T01:43:38.146Z,19.17
2023-06-30T01:46:06.266Z,19.07
2023-06-30T01:48:33.812Z,19.06
2023-06-30T01:51:01.410Z,18.99
2023-06-30T01:53:28.304Z,18.92
2023-06-30T01:55:57.905Z,18.98
2023-06-30T01:58:24.610Z,19.03
2023-06-30T02:00:51.624Z,19.02
2023-06-30T02:03:18.426Z,18.93
2023-06-30T02:05:45.292Z,18.95
2023-06-30T02:08:12.252Z,19.02
2023-06-30T02:10:39.102Z,19.09
2023-06-30T02:13:05.820Z,19.03
2023-06-30T02:15:32.540Z,18.94
2023-06-30T02:17:59.360Z,18.93
2023-06-30T02:20:26.138Z,19.00
2023-06-30T02:22:52.815Z,19.07
2023-06-30T02:25:19.661Z,18.94
2023-06-30T02:27:47.082Z,18.80
2023-06-30T02:30:14.515Z,18.65
2023-06-30T02:32:41.718Z,18.68
2023-06-30T02:35:10.310Z,18.47
2023-06-30T02:37:38.370Z,18.19
2023-06-30T02:40:06.371Z,17.29
2023-06-30T02:42:33.103Z,16.92
2023-06-30T02:44:59.908Z,16.59
2023-06-30T02:47:26.768Z,16.29
2023-06-30T02:49:53.723Z,16.22
2023-06-30T02:52:20.472Z,16.21
2023-06-30T02:54:47.295Z,16.21
2023-06-30T02:57:14.304Z,16.25
2023-06-30T02:59:41.254Z,16.15
2023-06-30T03:02:08.089Z,16.12
2023-06-30T03:04:34.953Z,16.08
2023-06-30T03:07:01.715Z,16.09
2023-06-30T03:09:28.586Z,16.26
